createdAt,value
2018-04-17T00:01:41.006Z,66.35
2018-04-17T00:04:09.144Z,64.30
2018-04-17T00:06:37.304Z,62.90
2018-04-17T00:09:06.297Z,71.50
2018-04-17T00:11:34.464Z,72.60
2018-04-17T00:14:02.605Z,58.75
2018-04-17T00:16:30.765Z,57.70
2018-04-17T00:18:58.907Z,54.58
2018-04-17T00:21:27.833Z,62.50
2018-04-17T00:23:55.967Z,57.20
2018-04-17T00:26:24.892Z,54.83
2018-04-17T00:28:58.877Z,56.85
2018-04-17T00:31:27.804Z,66.45
2018-04-17T00:33:55.942Z,71.07
2018-04-17T00:36:24.868Z,75.12
2018-04-17T00:38:53.011Z,68.55
2018-04-17T00:41:21.941Z,73.95
2018-04-17T00:43:50.077Z,71.18
2018-04-17T00:46:18.999Z,62.62
2018-04-17T00:48:47.139Z,77.00
2018-04-17T00:51:16.069Z,84.22
2018-04-17T00:54:08.798Z,99.22
2018-04-17T00:56:36.961Z,77.45
2018-04-17T00:59:05.095Z,72.53
2018-04-17T01:01:33.260Z,87.70
2018-04-17T01:04:01.394Z,82.50
2018-04-17T01:06:29.548Z,85.90
2018-04-17T01:08:57.685Z,92.97
2018-04-17T01:11:25.845Z,79.18
2018-04-17T01:13:53.976Z,75.22
2018-04-17T01:16:22.146Z,78.55
2018-04-17T01:18:50.280Z,75.70
2018-04-17T01:21:18.441Z,74.60
2018-04-17T01:23:46.579Z,79.15
2018-04-17T01:26:14.744Z,75.78
2018-04-17T01:28:42.880Z,70.60
2018-04-17T01:31:11.041Z,85.45
2018-04-17T01:33:39.180Z,94.50
2018-04-17T01:36:07.336Z,96.65
2018-04-17T01:38:35.471Z,94.53
2018-04-17T01:41:03.636Z,85.10
2018-04-17T01:43:31.768Z,84.57
2018-04-17T01:45:59.937Z,81.28
2018-04-17T01:48:28.073Z,78.25
2018-04-17T01:50:56.240Z,79.40
2018-04-17T01:53:24.376Z,79.62
2018-04-17T01:55:52.537Z,92.68
2018-04-17T01:58:20.673Z,91.90
2018-04-17T02:00:48.833Z,82.47
2018-04-17T02:03:16.968Z,69.55
2018-04-17T02:05:45.132Z,67.03
2018-04-17T02:08:13.265Z,67.47
2018-04-17T02:10:41.433Z,71.55
2018-04-17T02:13:09.568Z,80.18
2018-04-17T02:15:37.711Z,81.50
2018-04-17T02:18:05.884Z,104.87
2018-04-17T02:20:34.026Z,132.55
2018-04-17T02:23:02.191Z,109.43
2018-04-17T02:25:30.332Z,114.45
2018-04-17T02:27:58.494Z,105.78
2018-04-17T02:30:26.628Z,76.82
2018-04-17T02:32:55.558Z,101.18
2018-04-17T02:35:23.705Z,96.30
2018-04-17T02:37:52.632Z,106.18
2018-04-17T02:40:20.773Z,117.65
2018-04-17T02:42:49.696Z,102.18
2018-04-17T02:45:17.836Z,102.62
2018-04-17T02:47:46.767Z,100.18
2018-04-17T02:50:14.905Z,113.35
2018-04-17T02:52:43.836Z,129.27
2018-04-17T02:55:11.976Z,139.77
2018-04-17T02:57:41.021Z,135.23
2018-04-17T03:00:09.156Z,101.90
2018-04-17T03:02:37.320Z,93.75
2018-04-17T03:05:05.456Z,88.85
2018-04-17T03:07:33.629Z,86.10
2018-04-17T03:10:01.772Z,89.72
2018-04-17T03:12:29.932Z,97.03
2018-04-17T03:14:58.073Z,118.82
2018-04-17T03:17:26.999Z,100.80
2018-04-17T03:19:55.173Z,103.20
2018-04-17T03:22:23.323Z,78.80
2018-04-17T03:24:51.459Z,70.53
2018-04-17T03:27:19.624Z,68.40
2018-04-17T03:29:47.756Z,83.28
2018-04-17T03:32:15.912Z,90.93
2018-04-17T03:34:44.053Z,97.57
2018-04-17T03:37:12.217Z,100.15
2018-04-17T03:39:40.351Z,74.07
2018-04-17T03:42:08.515Z,59.67
2018-04-17T03:44:36.640Z,69.43
2018-04-17T03:47:04.808Z,67.82
2018-04-17T03:49:32.941Z,52.42
2018-04-17T03:52:01.100Z,49.90
2018-04-17T03:54:29.236Z,53.42
2018-04-17T03:56:57.400Z,148.73
2018-04-17T03:59:25.536Z,65.10
2018-04-17T04:01:53.699Z,64.72
2018-04-17T04:04:21.832Z,59.42
2018-04-17T04:06:49.993Z,70.93
2018-04-17T04:09:18.120Z,86.32
2018-04-17T04:11:46.293Z,136.50
2018-04-17T04:14:14.428Z,96.40
2018-04-17T04:16:54.264Z,77.90
2018-04-17T04:19:34.115Z,49.55
2018-04-17T04:22:14.012Z,46.97
2018-04-17T04:28:00.660Z,71.15
2018-04-17T04:30:28.802Z,94.13
2018-04-17T04:32:56.975Z,111.22
2018-04-17T04:35:26.113Z,426.25
2018-04-17T04:37:54.276Z,167.75
2018-04-17T04:40:22.417Z,142.73
2018-04-17T04:42:50.608Z,97.60
2018-04-17T04:45:18.748Z,89.65
2018-04-17T04:47:46.932Z,69.72
2018-04-17T04:50:15.065Z,94.72
2018-04-17T04:52:43.253Z,81.12
2018-04-17T04:55:11.398Z,96.55
2018-04-17T04:57:39.592Z,106.75
2018-04-17T05:00:07.724Z,91.90
2018-04-17T05:02:35.883Z,93.72
2018-04-17T05:05:04.017Z,108.53
2018-04-17T05:07:32.184Z,110.00
2018-04-17T05:10:00.329Z,116.53
2018-04-17T05:12:28.505Z,103.22
2018-04-17T05:14:56.645Z,111.62
2018-04-17T05:17:24.828Z,98.15
2018-04-17T05:19:52.969Z,115.80
2018-04-17T05:22:21.136Z,101.12
2018-04-17T05:24:49.272Z,115.50
2018-04-17T05:27:17.439Z,117.72
2018-04-17T05:29:45.572Z,99.97
2018-04-17T05:32:13.704Z,90.60
2018-04-17T05:34:41.863Z,105.72
2018-04-17T05:37:10.005Z,80.07
2018-04-17T05:39:38.928Z,84.37
2018-04-17T05:42:07.059Z,72.53
2018-04-17T05:44:36.004Z,64.20
2018-04-17T05:47:04.140Z,65.40
2018-04-17T05:49:33.069Z,66.82
2018-04-17T05:52:01.203Z,66.20
2018-04-17T05:54:30.164Z,57.67
2018-04-17T05:56:58.296Z,46.80
2018-04-17T05:59:26.465Z,47.20
2018-04-17T06:01:54.608Z,38.75
2018-04-17T06:04:22.772Z,26.85
2018-04-17T06:06:51.677Z,33.13
2018-04-17T06:09:19.836Z,27.33
2018-04-17T06:11:47.977Z,26.05
2018-04-17T06:14:16.140Z,24.08
2018-04-17T06:16:44.276Z,24.42
2018-04-17T06:19:12.452Z,18.23
2018-04-17T06:21:40.679Z,15.55
2018-04-17T06:24:08.839Z,18.60
2018-04-17T06:26:36.972Z,17.80
2018-04-17T06:29:05.896Z,15.93
2018-04-17T06:31:34.024Z,12.00
2018-04-17T06:34:02.960Z,10.95
2018-04-17T06:36:31.109Z,19.73
2018-04-17T06:38:59.480Z,13.93
2018-04-17T06:41:28.419Z,13.95
2018-04-17T06:43:56.571Z,9.70
2018-04-17T06:46:24.703Z,13.45
2018-04-17T06:48:52.976Z,17.00
2018-04-17T06:51:21.904Z,12.88
2018-04-17T06:53:50.233Z,10.70
2018-04-17T06:56:18.548Z,16.98
2018-04-17T06:58:46.788Z,10.32
2018-04-17T07:01:14.985Z,9.38
2018-04-17T07:03:43.139Z,11.23
2018-04-17T07:06:11.339Z,12.60
2018-04-17T07:08:39.519Z,10.13
2018-04-17T07:11:07.685Z,9.57
2018-04-17T07:13:35.893Z,8.88
2018-04-17T07:16:04.110Z,7.68
2018-04-17T07:18:32.344Z,13.23
2018-04-17T07:21:00.547Z,12.02
2018-04-17T07:23:28.791Z,14.07
2018-04-17T07:25:57.022Z,12.57
2018-04-17T07:28:25.207Z,11.55
2018-04-17T07:30:54.233Z,12.55
2018-04-17T07:33:22.452Z,11.07
2018-04-17T07:35:50.645Z,9.43
2018-04-17T07:38:19.681Z,10.97
2018-04-17T07:40:48.019Z,10.13
2018-04-17T07:43:17.037Z,12.17
2018-04-17T07:45:45.238Z,13.30
2018-04-17T07:48:26.054Z,7.57
2018-04-17T07:50:55.051Z,9.67
2018-04-17T07:53:23.233Z,10.63
2018-04-17T07:55:51.456Z,9.23
2018-04-17T07:58:19.638Z,8.50
2018-04-17T08:00:48.022Z,11.87
2018-04-17T08:03:16.258Z,7.70
2018-04-17T08:05:44.428Z,7.87
2018-04-17T08:08:12.587Z,9.70
2018-04-17T08:10:40.824Z,11.33
2018-04-17T08:13:09.033Z,12.27
2018-04-17T08:15:37.271Z,7.40
2018-04-17T08:18:06.434Z,12.67
2018-04-17T08:20:34.832Z,10.27
2018-04-17T08:23:03.025Z,12.13
2018-04-17T08:25:31.260Z,10.03
2018-04-17T08:27:59.417Z,8.17
2018-04-17T08:30:27.583Z,8.57
2018-04-17T08:32:55.725Z,10.03
2018-04-17T08:35:24.046Z,8.13
2018-04-17T08:37:52.615Z,8.20
2018-04-17T08:40:21.034Z,10.07
2018-04-17T08:42:49.603Z,8.77
2018-04-17T08:45:18.499Z,9.93
2018-04-17T08:47:46.635Z,13.33
2018-04-17T08:50:15.188Z,10.37
2018-04-17T08:52:43.735Z,12.37
2018-04-17T08:55:12.148Z,12.40
2018-04-17T08:57:40.307Z,9.77
2018-04-17T09:00:09.057Z,14.90
2018-04-17T09:02:37.228Z,11.13
2018-04-17T09:05:06.566Z,14.30
2018-04-17T09:07:35.416Z,12.93
2018-04-17T09:10:03.557Z,13.63
2018-04-17T09:12:31.728Z,16.73
2018-04-17T09:14:59.970Z,15.82
2018-04-17T09:17:28.140Z,8.82
2018-04-17T09:19:56.491Z,16.00
2018-04-17T09:22:24.664Z,14.93
2018-04-17T09:24:52.805Z,13.50
2018-04-17T09:27:20.992Z,12.85
2018-04-17T09:29:49.138Z,13.95
2018-04-17T09:32:17.337Z,7.82
2018-04-17T09:34:46.240Z,14.25
2018-04-17T09:37:14.478Z,9.15
2018-04-17T09:39:42.623Z,13.35
2018-04-17T09:42:10.831Z,14.63
2018-04-17T09:44:39.205Z,11.93
2018-04-17T09:47:07.402Z,13.00
2018-04-17T09:49:35.580Z,13.90
2018-04-17T09:52:04.090Z,16.52
2018-04-17T09:54:32.274Z,11.40
2018-04-17T09:57:00.456Z,12.35
2018-04-17T09:59:28.673Z,13.32
2018-04-17T10:01:57.068Z,13.13
2018-04-17T10:04:25.207Z,10.52
2018-04-17T10:06:53.372Z,9.35
2018-04-17T10:09:21.513Z,16.67
2018-04-17T10:11:49.667Z,10.85
2018-04-17T10:14:18.266Z,10.52
2018-04-17T10:16:46.440Z,12.95
2018-04-17T10:19:14.759Z,9.98
2018-04-17T10:21:42.934Z,15.10
2018-04-17T10:24:11.073Z,13.65
2018-04-17T10:26:39.252Z,13.82
2018-04-17T10:29:07.391Z,14.95
2018-04-17T10:31:35.575Z,11.90
2018-04-17T10:34:03.711Z,10.90
2018-04-17T10:36:31.907Z,14.55
2018-04-17T10:39:00.060Z,11.20
2018-04-17T10:41:28.228Z,12.95
2018-04-17T10:43:56.374Z,13.35
2018-04-17T10:46:24.548Z,10.63
2018-04-17T10:48:52.691Z,9.77
2018-04-17T10:51:20.836Z,10.98
2018-04-17T10:53:49.009Z,8.05
2018-04-17T10:56:17.171Z,8.77
2018-04-17T10:58:46.845Z,6.03
2018-04-17T11:01:14.983Z,11.80
2018-04-17T11:03:43.916Z,11.73
2018-04-17T11:06:12.052Z,9.00
2018-04-17T11:08:40.976Z,10.50
2018-04-17T11:11:09.119Z,9.63
2018-04-17T11:13:38.048Z,8.52
2018-04-17T11:16:06.193Z,12.02
2018-04-17T11:18:35.869Z,8.57
2018-04-17T11:21:04.023Z,11.63
2018-04-17T11:23:32.184Z,6.65
2018-04-17T11:26:00.322Z,12.05
2018-04-17T11:28:28.497Z,13.85
2018-04-17T11:30:56.639Z,6.95
2018-04-17T11:33:24.813Z,9.27
2018-04-17T11:35:52.961Z,10.65
2018-04-17T11:38:21.128Z,9.10
2018-04-17T11:40:49.274Z,9.48
2018-04-17T11:43:17.685Z,7.73
2018-04-17T11:45:45.853Z,7.60
2018-04-17T11:48:14.020Z,9.13
2018-04-17T11:50:42.168Z,9.50
2018-04-17T11:53:10.525Z,9.10
2018-04-17T11:55:38.660Z,8.50
2018-04-17T11:58:06.832Z,9.52
2018-04-17T12:00:34.984Z,11.77
2018-04-17T12:03:03.152Z,12.27
2018-04-17T12:05:31.299Z,8.93
2018-04-17T12:08:00.240Z,11.93
2018-04-17T12:10:28.376Z,11.68
2018-04-17T12:12:56.601Z,9.30
2018-04-17T12:15:24.923Z,7.60
2018-04-17T12:17:53.113Z,9.70
2018-04-17T12:20:21.262Z,12.77
2018-04-17T12:22:49.494Z,9.68
2018-04-17T12:25:17.642Z,8.90
2018-04-17T12:27:45.804Z,7.57
2018-04-17T12:30:13.936Z,9.60
2018-04-17T12:32:42.142Z,8.75
2018-04-17T12:35:17.219Z,10.30
2018-04-17T12:37:45.379Z,8.77
2018-04-17T12:40:13.525Z,13.38
2018-04-17T12:42:41.688Z,6.68
2018-04-17T12:45:09.829Z,11.25
2018-04-17T12:47:37.997Z,9.25
2018-04-17T12:50:06.128Z,7.75
2018-04-17T12:52:34.327Z,7.57
2018-04-17T12:55:02.522Z,9.48
2018-04-17T12:57:30.701Z,8.30
2018-04-17T12:59:58.883Z,9.73
2018-04-17T13:02:27.112Z,9.63
2018-04-17T13:04:55.323Z,10.20
2018-04-17T13:07:23.477Z,10.77
2018-04-17T13:09:51.720Z,10.30
2018-04-17T13:12:19.897Z,9.82
2018-04-17T13:14:48.067Z,9.52
2018-04-17T13:17:16.210Z,10.38
2018-04-17T13:19:44.376Z,13.55
2018-04-17T13:22:19.328Z,7.50
2018-04-17T13:24:48.276Z,8.35
2018-04-17T13:27:16.429Z,7.47
2018-04-17T13:29:44.600Z,10.88
2018-04-17T13:32:12.750Z,12.23
2018-04-17T13:34:40.918Z,10.82
2018-04-17T13:37:09.828Z,9.57
2018-04-17T13:39:38.000Z,12.73
2018-04-17T13:42:06.145Z,7.47
2018-04-17T13:44:34.317Z,13.60
2018-04-17T13:47:02.484Z,8.20
2018-04-17T13:49:30.665Z,12.37
2018-04-17T13:51:58.852Z,9.25
2018-04-17T13:54:27.020Z,9.88
2018-04-17T13:56:55.960Z,10.25
2018-04-17T13:59:24.197Z,7.82
2018-04-17T14:01:52.371Z,9.50
2018-04-17T14:04:20.543Z,10.38
2018-04-17T14:06:49.497Z,11.20
2018-04-17T14:09:17.677Z,10.45
2018-04-17T14:11:45.838Z,10.60
2018-04-17T14:14:14.051Z,11.90
2018-04-17T14:16:42.176Z,9.53
2018-04-17T14:19:10.406Z,9.10
2018-04-17T14:21:38.564Z,12.67
2018-04-17T14:24:06.741Z,11.30
2018-04-17T14:26:34.907Z,13.37
2018-04-17T14:29:03.085Z,10.18
2018-04-17T14:31:32.023Z,12.70
2018-04-17T14:34:00.211Z,12.75
2018-04-17T14:36:28.361Z,10.43
2018-04-17T14:38:56.526Z,10.48
2018-04-17T14:41:24.671Z,11.03
2018-04-17T14:43:52.903Z,14.50
2018-04-17T14:46:21.087Z,10.70
2018-04-17T14:48:49.243Z,12.53
2018-04-17T14:51:17.389Z,12.80
2018-04-17T14:53:45.683Z,12.15
2018-04-17T14:56:13.822Z,15.43
2018-04-17T14:58:41.999Z,12.97
2018-04-17T15:01:10.180Z,12.83
2018-04-17T15:03:39.133Z,12.47
2018-04-17T15:06:07.276Z,10.60
2018-04-17T15:08:35.679Z,15.75
2018-04-17T15:11:03.837Z,18.55
2018-04-17T15:13:31.985Z,13.10
2018-04-17T15:16:00.188Z,15.73
2018-04-17T15:18:28.359Z,11.55
2018-04-17T15:20:56.529Z,13.47
2018-04-17T15:23:24.676Z,11.25
2018-04-17T15:25:53.604Z,13.02
2018-04-17T15:28:21.752Z,16.23
2018-04-17T15:30:49.928Z,14.80
2018-04-17T15:33:18.074Z,15.82
2018-04-17T15:35:47.021Z,12.70
2018-04-17T15:38:15.223Z,15.30
2018-04-17T15:40:43.397Z,13.75
2018-04-17T15:43:11.649Z,13.07
2018-04-17T15:45:39.932Z,13.27
2018-04-17T15:48:08.182Z,16.23
2018-04-17T15:50:36.505Z,17.65
2018-04-17T15:53:04.702Z,13.43
2018-04-17T15:55:32.976Z,13.00
2018-04-17T15:58:01.915Z,12.60
2018-04-17T16:00:30.137Z,18.65
2018-04-17T16:02:58.305Z,14.03
2018-04-17T16:05:26.491Z,12.48
2018-04-17T16:07:54.647Z,11.80
2018-04-17T16:10:22.832Z,10.77
2018-04-17T16:12:50.968Z,14.80
2018-04-17T16:15:19.144Z,11.55
2018-04-17T16:17:47.301Z,14.90
2018-04-17T16:20:15.476Z,11.05
2018-04-17T16:22:43.939Z,21.80
2018-04-17T16:25:12.197Z,11.52
2018-04-17T16:27:40.438Z,17.17
2018-04-17T16:30:08.642Z,19.15
2018-04-17T16:32:36.805Z,13.05
2018-04-17T16:35:04.989Z,15.98
2018-04-17T16:37:33.142Z,15.43
2018-04-17T16:40:01.323Z,15.88
2018-04-17T16:42:29.502Z,13.77
2018-04-17T16:44:57.676Z,13.48
2018-04-17T16:47:25.845Z,15.27
2018-04-17T16:49:54.028Z,15.63
2018-04-17T16:52:22.314Z,16.70
2018-04-17T16:54:51.273Z,13.30
2018-04-17T16:57:19.421Z,11.77
2018-04-17T16:59:47.774Z,14.60
2018-04-17T17:02:15.917Z,13.90
2018-04-17T17:04:44.105Z,13.85
2018-04-17T17:07:12.270Z,11.23
2018-04-17T17:09:40.470Z,11.48
2018-04-17T17:12:08.651Z,9.93
2018-04-17T17:14:37.041Z,10.77
2018-04-17T17:17:05.229Z,12.30
2018-04-17T17:19:33.405Z,14.48
2018-04-17T17:22:01.591Z,8.73
2018-04-17T17:24:29.845Z,10.43
2018-04-17T17:26:58.032Z,11.35
2018-04-17T17:29:26.389Z,11.57
2018-04-17T17:31:54.583Z,11.40
2018-04-17T17:34:22.802Z,9.00
2018-04-17T17:36:50.968Z,10.75
2018-04-17T17:39:19.099Z,9.95
2018-04-17T17:41:47.661Z,9.95
2018-04-17T17:44:15.868Z,10.75
2018-04-17T17:46:44.028Z,11.27
2018-04-17T17:49:12.244Z,13.25
2018-04-17T17:51:40.417Z,8.32
2018-04-17T17:54:08.548Z,7.55
2018-04-17T17:56:36.741Z,7.50
2018-04-17T17:59:04.872Z,5.50
2018-04-17T18:01:33.800Z,7.93
2018-04-17T18:04:01.946Z,8.45
2018-04-17T18:06:30.110Z,9.57
2018-04-17T18:08:58.248Z,12.32
2018-04-17T18:11:26.404Z,9.10
2018-04-17T18:13:54.552Z,13.15
2018-04-17T18:16:22.717Z,11.07
2018-04-17T18:18:50.852Z,10.60
2018-04-17T18:21:19.008Z,9.32
2018-04-17T18:23:47.165Z,14.60
2018-04-17T18:26:15.328Z,13.95
2018-04-17T18:28:44.210Z,10.35
2018-04-17T18:31:12.416Z,16.40
2018-04-17T18:33:40.563Z,15.48
2018-04-17T18:36:08.736Z,11.10
2018-04-17T18:38:36.913Z,10.20
2018-04-17T18:41:05.075Z,11.98
2018-04-17T18:43:33.254Z,11.88
2018-04-17T18:46:01.470Z,10.75
2018-04-17T18:48:30.292Z,15.80
2018-04-17T18:50:59.715Z,13.77
2018-04-17T18:53:27.883Z,14.52
2018-04-17T18:55:56.067Z,17.33
2018-04-17T18:58:24.216Z,11.68
2018-04-17T19:00:52.495Z,13.52
2018-04-17T19:03:20.643Z,10.00
2018-04-17T19:05:49.015Z,9.93
2018-04-17T19:08:17.221Z,13.80
2018-04-17T19:10:45.423Z,10.35
2018-04-17T19:13:13.596Z,12.80
2018-04-17T19:15:41.755Z,18.65
2018-04-17T19:18:09.923Z,16.70
2018-04-17T19:20:38.943Z,15.30
2018-04-17T19:23:07.113Z,20.25
2018-04-17T19:25:35.279Z,18.92
2018-04-17T19:28:03.427Z,15.35
2018-04-17T19:30:32.388Z,18.35
2018-04-17T19:33:00.564Z,28.70
2018-04-17T19:35:28.748Z,20.98
2018-04-17T19:37:56.903Z,14.30
2018-04-17T19:40:25.091Z,20.70
2018-04-17T19:42:53.276Z,17.55
2018-04-17T19:45:21.437Z,17.83
2018-04-17T19:47:49.632Z,19.17
2018-04-17T19:50:17.800Z,15.98
2018-04-17T19:52:45.961Z,15.98
2018-04-17T19:55:14.132Z,26.70
2018-04-17T19:57:42.329Z,17.62
2018-04-17T20:00:10.491Z,21.35
2018-04-17T20:02:39.434Z,20.48
2018-04-17T20:05:07.618Z,18.12
2018-04-17T20:07:35.816Z,21.15
2018-04-17T20:10:05.476Z,16.15
2018-04-17T20:12:33.636Z,20.55
2018-04-17T20:15:01.782Z,17.30
2018-04-17T20:17:29.962Z,18.00
2018-04-17T20:19:58.120Z,16.35
2018-04-17T20:22:26.279Z,15.80
2018-04-17T20:24:54.445Z,21.98
2018-04-17T20:27:23.381Z,23.40
2018-04-17T20:29:52.290Z,20.62
2018-04-17T20:32:20.458Z,20.73
2018-04-17T20:34:53.226Z,15.32
2018-04-17T20:37:21.435Z,16.67
2018-04-17T20:39:49.569Z,19.73
2018-04-17T20:42:17.803Z,21.55
2018-04-17T20:44:45.970Z,17.30
2018-04-17T20:47:14.136Z,20.80
2018-04-17T20:49:42.275Z,18.73
2018-04-17T20:52:10.431Z,15.20
2018-04-17T20:54:38.566Z,15.32
2018-04-17T20:57:06.729Z,13.62
2018-04-17T20:59:35.561Z,17.90
2018-04-17T21:02:03.764Z,25.67
2018-04-17T21:04:31.946Z,25.33
2018-04-17T21:07:00.123Z,20.27
2018-04-17T21:09:28.290Z,22.77
2018-04-17T21:11:56.476Z,27.52
2018-04-17T21:14:24.633Z,23.08
2018-04-17T21:16:53.569Z,20.25
2018-04-17T21:19:21.721Z,15.98
2018-04-17T21:21:49.942Z,19.75
2018-04-17T21:24:18.084Z,20.55
2018-04-17T21:26:46.271Z,18.83
2018-04-17T21:29:14.424Z,23.02
2018-04-17T21:31:42.567Z,21.87
2018-04-17T21:34:10.728Z,18.77
2018-04-17T21:36:38.912Z,19.20
2018-04-17T21:39:07.072Z,24.37
2018-04-17T21:41:35.214Z,20.25
2018-04-17T21:44:03.377Z,17.83
2018-04-17T21:46:31.523Z,29.98
2018-04-17T21:48:59.690Z,23.77
2018-04-17T21:51:27.824Z,23.20
2018-04-17T21:53:55.988Z,32.08
2018-04-17T21:56:24.129Z,26.02
2018-04-17T21:58:52.292Z,29.17
2018-04-17T22:01:35.312Z,33.70
2018-04-17T22:04:03.473Z,36.75
2018-04-17T22:06:31.620Z,31.45
2018-04-17T22:08:59.779Z,70.10
2018-04-17T22:11:27.917Z,48.67
2018-04-17T22:13:56.082Z,30.05
2018-04-17T22:16:24.216Z,23.55
2018-04-17T22:18:52.378Z,23.23
2018-04-17T22:21:20.513Z,36.17
2018-04-17T22:23:48.668Z,30.75
2018-04-17T22:26:16.810Z,21.90
2018-04-17T22:28:44.967Z,21.05
2018-04-17T22:31:13.105Z,24.50
2018-04-17T22:33:41.261Z,27.92
2018-04-17T22:36:09.403Z,22.40
2018-04-17T22:38:37.577Z,24.63
2018-04-17T22:41:05.704Z,23.95
2018-04-17T22:43:33.869Z,19.27
2018-04-17T22:46:02.000Z,23.48
2018-04-17T22:48:30.194Z,24.08
2018-04-17T22:50:58.320Z,26.35
2018-04-17T22:53:26.479Z,23.00
2018-04-17T22:55:54.621Z,21.23
2018-04-17T22:58:23.540Z,20.77
2018-04-17T23:00:51.679Z,30.80
2018-04-17T23:03:20.601Z,27.65
2018-04-17T23:05:48.732Z,26.95
2018-04-17T23:08:17.652Z,30.75
2018-04-17T23:10:46.779Z,28.12
2018-04-17T23:13:14.941Z,26.95
2018-04-17T23:15:43.073Z,31.67
2018-04-17T23:18:11.233Z,31.30
2018-04-17T23:20:39.376Z,26.87
2018-04-17T23:23:07.536Z,29.77
2018-04-17T23:25:35.676Z,26.42
2018-04-17T23:28:03.834Z,37.60
2018-04-17T23:30:32.736Z,32.65
2018-04-17T23:33:00.896Z,26.10
2018-04-17T23:35:29.031Z,28.17
2018-04-17T23:37:57.160Z,32.15
2018-04-17T23:40:25.313Z,29.60
2018-04-17T23:42:53.447Z,27.55
2018-04-17T23:45:21.600Z,30.55
2018-04-17T23:47:49.738Z,31.30
2018-04-17T23:50:17.896Z,35.22
2018-04-17T23:52:46.032Z,34.63
2018-04-17T23:55:14.192Z,42.53
2018-04-17T23:57:42.323Z,26.62
